Time;durP1;ratioP1;P1;durP2;ratioP2;P2;SDS_P1;SDS_P2;PMS_P1;PMS_P2;Temp;Humidity;BMP_temperature;BMP_pressure;BME280_temperature;BME280_humidity;BME280_pressure;Samples;Min_cycle;Max_cycle;Signal;HPM_P1;HPM_P2
2021/12/22 00:01:28;;;;;;;22.10;7.57;;;;;;;-3.88;98.17;102443.00;5072161;28;20040;-72
2021/12/22 00:03:55;;;;;;;9.70;6.15;;;;;;;-3.92;97.67;102444.69;5073800;28;20075;-71
2021/12/22 00:06:24;;;;;;;14.65;6.20;;;;;;;-3.94;97.43;102445.53;5078338;28;20040;-71
2021/12/22 00:08:52;;;;;;;16.63;7.13;;;;;;;-3.97;98.03;102450.63;5078506;28;20121;-72
2021/12/22 00:11:20;;;;;;;9.05;5.10;;;;;;;-3.96;97.76;102437.84;5051274;28;20076;-73
2021/12/22 00:13:46;;;;;;;7.00;5.22;;;;;;;-3.96;97.72;102442.97;5074920;28;20063;-72
2021/12/22 00:16:13;;;;;;;7.95;5.00;;;;;;;-3.95;97.64;102443.81;5073575;28;20044;-73
2021/12/22 00:18:39;;;;;;;11.38;6.05;;;;;;;-4.00;97.56;102442.94;5076887;28;20271;-73
2021/12/22 00:21:06;;;;;;;12.40;4.32;;;;;;;-4.01;97.36;102438.66;5072881;28;20044;-73
2021/12/22 00:23:33;;;;;;;15.43;6.97;;;;;;;-3.99;97.69;102441.22;5069536;28;20071;-72
2021/12/22 00:26:01;;;;;;;17.35;6.78;;;;;;;-4.02;97.24;102447.19;5076192;28;20052;-72
2021/12/22 00:28:27;;;;;;;13.90;8.18;;;;;;;-3.99;97.07;102446.34;5069238;28;20064;-73
2021/12/22 00:30:54;;;;;;;13.63;6.10;;;;;;;-4.00;97.30;102447.19;5074833;28;20054;-73
2021/12/22 00:33:21;;;;;;;10.57;7.00;;;;;;;-3.99;97.42;102443.78;5063870;28;20165;-71
2021/12/22 00:35:47;;;;;;;8.13;6.05;;;;;;;-4.02;97.44;102447.19;5076984;28;20049;-72
2021/12/22 00:40:56;;;;;;;9.18;6.18;;;;;;;-4.06;96.74;102439.47;5108394;27;20181;-73
2021/12/22 00:43:22;;;;;;;8.45;5.50;;;;;;;-4.09;97.00;102445.44;5103188;28;20048;-71
2021/12/22 00:45:55;;;;;;;8.80;5.70;;;;;;;-4.00;97.27;102448.06;5105223;27;20048;-73
2021/12/22 00:48:22;;;;;;;9.70;5.75;;;;;;;-4.07;96.71;102451.44;5106329;28;20044;-72
2021/12/22 00:50:48;;;;;;;21.17;5.80;;;;;;;-4.06;96.14;102450.56;5099514;28;20435;-72
2021/12/22 00:53:16;;;;;;;12.13;6.72;;;;;;;-4.08;96.88;102447.16;5103672;28;20534;-74
2021/12/22 00:55:44;;;;;;;8.13;5.45;;;;;;;-4.11;96.63;102447.13;5102040;28;20121;-72
2021/12/22 00:58:12;;;;;;;8.52;4.93;;;;;;;-3.97;97.60;102448.06;5111847;28;20118;-72
2021/12/22 01:00:38;;;;;;;10.90;5.75;;;;;;;-3.97;96.97;102444.66;5110917;28;20122;-72
2021/12/22 01:03:06;;;;;;;9.73;5.55;;;;;;;-4.01;97.49;102451.47;5110212;28;20040;-72
2021/12/22 01:05:33;;;;;;;7.82;4.45;;;;;;;-4.00;96.61;102454.88;5115378;28;20043;-73
2021/12/22 01:07:59;;;;;;;12.27;5.32;;;;;;;-4.01;96.82;102446.34;5115582;27;20047;-73
2021/12/22 01:10:28;;;;;;;7.68;4.75;;;;;;;-4.01;97.23;102456.59;5134397;28;20047;-74
2021/12/22 01:12:56;;;;;;;7.60;6.22;;;;;;;-4.04;96.69;102450.59;5126497;28;20092;-74
2021/12/22 01:15:26;;;;;;;7.32;4.50;;;;;;;-4.04;96.71;102440.34;5140509;27;20116;-72
2021/12/22 01:18:00;;;;;;;10.25;6.07;;;;;;;-4.01;97.07;102438.66;5118286;27;20036;-72
2021/12/22 01:20:31;;;;;;;6.88;5.50;;;;;;;-4.03;96.99;102439.50;5115263;28;20040;-73
2021/12/22 01:23:02;;;;;;;6.45;5.47;;;;;;;-4.11;97.68;102444.56;5107482;27;20039;-72
2021/12/22 01:25:32;;;;;;;16.80;5.88;;;;;;;-4.17;96.82;102446.22;5113214;28;20070;-72
2021/12/22 01:28:00;;;;;;;9.10;5.43;;;;;;;-4.21;96.55;102459.88;5108005;27;20036;-72
2021/12/22 01:30:30;;;;;;;11.20;5.63;;;;;;;-4.20;96.82;102449.63;5105965;28;20040;-72
2021/12/22 01:32:59;;;;;;;8.23;5.50;;;;;;;-4.21;96.58;102450.47;5114003;27;20046;-73
2021/12/22 01:35:29;;;;;;;19.67;5.25;;;;;;;-4.26;96.23;102452.16;5104755;28;20115;-73
2021/12/22 01:37:56;;;;;;;4.30;3.17;;;;;;;-4.32;96.04;102446.97;5108035;27;20043;-73
2021/12/22 01:40:23;;;;;;;7.10;4.30;;;;;;;-4.30;96.60;102450.38;5105142;28;20056;-73
2021/12/22 01:42:51;;;;;;;9.38;5.32;;;;;;;-4.27;96.52;102455.56;5100369;27;20114;-72
2021/12/22 01:45:29;;;;;;;7.70;5.00;;;;;;;-4.22;96.94;102448.75;5106262;27;20046;-74
2021/12/22 01:51:05;;;;;;;4.05;3.13;;;;;;;-4.32;96.98;102454.69;5024347;28;20056;-72
2021/12/22 01:53:36;;;;;;;11.70;4.22;;;;;;;-4.27;97.56;102450.44;5015713;28;20133;-73
2021/12/22 01:56:13;;;;;;;8.40;5.00;;;;;;;-4.26;97.23;102456.41;5059517;28;20136;-73
2021/12/22 01:58:42;;;;;;;14.50;5.40;;;;;;;-4.32;97.95;102446.97;5086825;28;20046;-72
2021/12/22 02:01:10;;;;;;;8.57;5.30;;;;;;;-4.32;97.83;102446.97;5091815;28;20060;-74
2021/12/22 02:03:39;;;;;;;5.40;3.53;;;;;;;-4.36;97.67;102441.81;5088581;28;20044;-73
2021/12/22 02:06:08;;;;;;;4.07;3.33;;;;;;;-4.39;97.06;102455.44;5093246;28;20042;-73
2021/12/22 02:08:35;;;;;;;5.35;3.55;;;;;;;-4.44;96.31;102446.88;5095045;28;20055;-72
2021/12/22 02:11:02;;;;;;;3.88;2.90;;;;;;;-4.47;97.03;102454.53;5086599;28;20048;-72
2021/12/22 02:13:32;;;;;;;7.05;4.75;;;;;;;-4.50;96.28;102451.94;5086272;28;20199;-73
2021/12/22 02:16:05;;;;;;;7.70;4.15;;;;;;;-4.49;96.68;102463.06;5084382;28;20134;-71
2021/12/22 02:18:32;;;;;;;6.57;2.90;;;;;;;-4.50;97.01;102462.22;5096759;28;20055;-73
2021/12/22 02:21:01;;;;;;;5.03;3.85;;;;;;;-4.40;96.96;102458.00;5099313;28;20142;-74
2021/12/22 02:23:28;;;;;;;6.10;3.28;;;;;;;-4.32;97.27;102454.69;5090828;28;20070;-73
2021/12/22 02:25:59;;;;;;;8.68;3.88;;;;;;;-4.28;97.02;102453.84;5096934;28;20124;-73
2021/12/22 02:28:30;;;;;;;29.00;3.43;;;;;;;-4.29;97.59;102452.13;5091059;28;20190;-72
2021/12/22 02:30:57;;;;;;;5.22;3.20;;;;;;;-4.33;96.86;102444.38;5090845;28;20071;-72
2021/12/22 02:33:32;;;;;;;4.13;3.17;;;;;;;-4.36;97.80;102450.34;5082893;28;20048;-72
2021/12/22 02:36:19;;;;;;;4.78;2.78;;;;;;;-4.41;97.17;102446.03;5086606;28;20129;-74
2021/12/22 02:38:50;;;;;;;17.73;4.03;;;;;;;-4.53;96.33;102444.22;5090976;28;20051;-73
2021/12/22 02:41:18;;;;;;;3.22;2.15;;;;;;;-4.59;95.96;102441.63;5087955;27;20059;-73
2021/12/22 02:43:48;;;;;;;4.07;3.28;;;;;;;-4.62;96.72;102451.81;5088170;28;20131;-73
2021/12/22 02:46:18;;;;;;;11.07;3.65;;;;;;;-4.48;96.79;102450.28;5084166;28;20051;-72
2021/12/22 02:48:45;;;;;;;3.30;2.30;;;;;;;-4.51;97.31;102437.41;5092224;28;20087;-72
2021/12/22 02:51:12;;;;;;;20.45;3.35;;;;;;;-4.48;96.79;102445.13;5086583;28;20140;-73
2021/12/22 02:53:43;;;;;;;5.95;3.13;;;;;;;-4.54;96.28;102447.63;5089951;28;20127;-72
2021/12/22 02:56:28;;;;;;;2.95;2.58;;;;;;;-4.59;96.55;102444.19;5092210;28;20036;-73
2021/12/22 02:59:04;;;;;;;5.97;3.65;;;;;;;-4.51;96.56;102444.22;5088005;28;20093;-73
2021/12/22 03:02:09;;;;;;;4.07;3.38;;;;;;;-4.48;96.81;102445.13;5094140;28;20066;-73
2021/12/22 03:04:44;;;;;;;6.50;2.30;;;;;;;-4.55;97.44;102440.78;5090671;27;20079;-73
2021/12/22 03:07:15;;;;;;;3.38;2.38;;;;;;;-4.57;96.25;102432.25;5094875;27;20040;-73
2021/12/22 03:09:45;;;;;;;5.30;2.70;;;;;;;-4.62;96.20;102446.69;5088316;28;20055;-73
2021/12/22 03:12:15;;;;;;;2.40;1.85;;;;;;;-4.65;95.53;102441.56;5099246;28;20102;-73
2021/12/22 03:17:50;;;;;;;5.13;3.40;;;;;;;-4.60;96.04;102434.75;5100885;27;20931;-72
2021/12/22 03:20:19;;;;;;;4.05;2.65;;;;;;;-4.67;95.87;102440.69;5089492;28;20051;-72
2021/12/22 03:22:47;;;;;;;4.78;3.10;;;;;;;-4.66;95.74;102439.84;5107747;28;20077;-74
2021/12/22 03:25:17;;;;;;;4.15;2.65;;;;;;;-4.65;95.89;102436.44;5108224;27;20043;-73
2021/12/22 03:30:26;;;;;;;12.02;3.72;;;;;;;-4.69;96.90;102442.38;5074560;27;20981;-70
2021/12/22 03:32:57;;;;;;;2.22;1.63;;;;;;;-4.67;96.57;102447.50;5076708;28;20051;-71
2021/12/22 03:35:24;;;;;;;3.95;2.60;;;;;;;-4.69;95.95;102438.97;5076901;28;20055;-69
2021/12/22 03:37:53;;;;;;;25.02;3.28;;;;;;;-4.74;96.98;102449.16;5078925;28;20055;-74
2021/12/22 03:40:22;;;;;;;3.50;2.92;;;;;;;-4.73;96.53;102453.44;5075945;28;20051;-69
2021/12/22 03:42:51;;;;;;;7.65;3.78;;;;;;;-4.78;95.68;102460.22;5079699;28;20047;-71
2021/12/22 03:45:18;;;;;;;11.27;2.50;;;;;;;-4.76;96.02;102463.66;5081613;28;20040;-72
2021/12/22 03:47:47;;;;;;;6.75;3.08;;;;;;;-4.78;95.80;102464.50;5088719;28;20095;-71
2021/12/22 03:50:15;;;;;;;2.22;1.98;;;;;;;-4.84;95.52;102463.56;5097602;28;20036;-71
2021/12/22 03:52:41;;;;;;;4.10;2.80;;;;;;;-4.75;96.32;102447.44;5091944;28;20041;-71
2021/12/22 03:55:09;;;;;;;2.50;2.03;;;;;;;-4.72;96.40;102450.03;5082001;28;20067;-69
2021/12/22 03:57:36;;;;;;;3.35;2.78;;;;;;;-4.69;95.91;102444.94;5080218;28;20070;-70
2021/12/22 04:00:05;;;;;;;1.85;1.52;;;;;;;-4.62;96.58;102446.69;5079036;28;20075;-71
